createdAt,value
2022-09-02T00:02:19.478Z,1.60
2022-09-02T00:07:21.734Z,1.40
2022-09-02T00:12:23.974Z,1.58
2022-09-02T00:17:26.426Z,1.80
2022-09-02T00:22:28.596Z,1.60
2022-09-02T00:27:30.887Z,1.50
2022-09-02T00:32:33.259Z,1.52
2022-09-02T00:37:35.703Z,1.55
2022-09-02T00:42:38.465Z,1.70
2022-09-02T00:47:40.615Z,2.00
2022-09-02T00:52:54.725Z,1.73
2022-09-02T00:58:04.809Z,1.45
2022-09-02T01:03:16.515Z,1.80
2022-09-02T01:08:23.190Z,1.70
2022-09-02T01:13:29.396Z,1.90
2022-09-02T01:18:32.416Z,2.00
2022-09-02T01:23:35.787Z,1.80
2022-09-02T01:28:38.115Z,1.70
2022-09-02T01:33:40.288Z,1.60
2022-09-02T01:38:42.548Z,1.50
2022-09-02T01:43:44.871Z,1.38
2022-09-02T01:48:47.361Z,1.70
2022-09-02T01:53:49.619Z,1.63
2022-09-02T01:58:51.879Z,1.80
2022-09-02T02:03:55.964Z,1.70
2022-09-02T02:08:59.789Z,1.80
2022-09-02T02:14:03.109Z,1.80
2022-09-02T02:19:06.086Z,2.40
2022-09-02T02:24:08.696Z,1.63
2022-09-02T02:29:11.110Z,1.70
2022-09-02T02:34:14.435Z,2.15
2022-09-02T02:39:17.887Z,2.67
2022-09-02T02:44:21.620Z,2.45
2022-09-02T02:49:24.395Z,1.88
2022-09-02T02:54:34.912Z,1.70
2022-09-02T02:59:38.961Z,2.00
2022-09-02T03:04:42.966Z,1.80
2022-09-02T03:09:45.581Z,1.92
2022-09-02T03:14:47.848Z,1.83
2022-09-02T03:19:50.807Z,2.45
2022-09-02T03:24:53.344Z,2.70
2022-09-02T03:29:55.617Z,2.15
2022-09-02T03:34:58.531Z,2.35
2022-09-02T03:40:04.251Z,2.30
2022-09-02T03:45:10.208Z,2.03
2022-09-02T03:50:12.697Z,2.03
2022-09-02T03:55:15.540Z,2.80
2022-09-02T04:00:21.331Z,2.10
2022-09-02T04:05:24.814Z,2.20
2022-09-02T04:10:30.218Z,2.20
2022-09-02T04:15:32.562Z,2.50
2022-09-02T04:20:39.329Z,3.03
2022-09-02T04:25:43.290Z,2.70
2022-09-02T04:30:46.684Z,2.55
2022-09-02T04:35:51.691Z,3.22
2022-09-02T04:40:55.159Z,3.70
2022-09-02T04:45:58.225Z,3.17
2022-09-02T04:51:09.195Z,3.38
2022-09-02T04:56:16.340Z,4.00
2022-09-02T05:01:30.872Z,4.22
2022-09-02T05:06:37.109Z,4.22
2022-09-02T05:11:41.805Z,4.40
2022-09-02T05:16:45.790Z,4.90
2022-09-02T05:21:57.642Z,4.55
2022-09-02T05:27:04.918Z,4.35
2022-09-02T05:32:09.845Z,3.97
2022-09-02T05:37:14.457Z,4.38
2022-09-02T05:42:19.707Z,5.10
2022-09-02T05:47:25.258Z,3.78
2022-09-02T05:52:29.264Z,3.50
2022-09-02T05:57:31.794Z,4.55
2022-09-02T06:02:39.977Z,4.80
2022-09-02T06:07:43.532Z,4.00
2022-09-02T06:12:46.583Z,3.90
2022-09-02T06:17:48.999Z,4.43
2022-09-02T06:22:51.625Z,4.40
2022-09-02T06:27:55.985Z,6.32
2022-09-02T06:32:58.924Z,4.25
2022-09-02T06:38:02.230Z,3.75
2022-09-02T06:43:04.974Z,4.05
2022-09-02T06:48:13.866Z,4.35
2022-09-02T06:53:19.439Z,4.07
2022-09-02T06:58:22.062Z,4.43
2022-09-02T07:03:43.294Z,4.78
2022-09-02T07:08:46.212Z,4.22
2022-09-02T07:13:49.687Z,4.50
2022-09-02T07:18:53.372Z,3.60
2022-09-02T07:23:58.545Z,3.42
2022-09-02T07:34:06.652Z,4.35
2022-09-02T07:39:10.702Z,5.25
2022-09-02T07:44:14.229Z,4.05
2022-09-02T07:49:23.924Z,4.83
2022-09-02T07:54:27.677Z,4.32
2022-09-02T07:59:31.930Z,3.65
2022-09-02T08:04:37.292Z,4.63
2022-09-02T08:09:42.905Z,4.57
2022-09-02T08:14:45.202Z,5.05
2022-09-02T08:19:47.549Z,5.72
2022-09-02T08:24:49.942Z,6.80
2022-09-02T08:29:52.281Z,4.85
2022-09-02T08:34:54.466Z,6.45
2022-09-02T08:39:56.637Z,5.43
2022-09-02T08:45:11.188Z,8.75
2022-09-02T08:50:18.262Z,5.55
2022-09-02T08:55:26.768Z,5.75
2022-09-02T09:00:37.912Z,5.88
2022-09-02T09:05:53.240Z,5.68
2022-09-02T09:11:06.075Z,5.23
2022-09-02T09:16:32.095Z,5.45
2022-09-02T09:26:41.003Z,5.60
2022-09-02T09:31:46.902Z,5.25
2022-09-02T09:41:58.444Z,5.25
2022-09-02T09:47:07.141Z,6.32
2022-09-02T09:52:09.804Z,6.63
2022-09-02T09:57:21.457Z,5.30
2022-09-02T10:02:27.433Z,5.20
2022-09-02T10:07:39.243Z,4.40
2022-09-02T10:12:41.832Z,4.20
2022-09-02T10:18:14.114Z,5.38
2022-09-02T10:23:51.897Z,4.00
2022-09-02T10:29:47.425Z,6.60
2022-09-02T10:35:11.597Z,6.63
2022-09-02T10:40:16.709Z,6.97
2022-09-02T10:45:36.553Z,6.32
2022-09-02T10:51:08.308Z,6.95
2022-09-02T10:56:14.506Z,5.70
2022-09-02T11:01:26.473Z,4.60
2022-09-02T11:06:51.798Z,5.20
2022-09-02T11:12:04.790Z,5.55
2022-09-02T11:17:22.020Z,6.53
2022-09-02T11:22:48.740Z,5.65
2022-09-02T11:28:23.913Z,5.57
2022-09-02T11:33:35.735Z,6.03
2022-09-02T11:38:58.524Z,5.45
2022-09-02T11:44:15.968Z,4.60
2022-09-02T11:49:30.145Z,4.55
2022-09-02T11:54:41.434Z,4.88
2022-09-02T11:59:52.684Z,3.72
2022-09-02T12:05:30.225Z,4.60
2022-09-02T12:10:45.397Z,4.00
2022-09-02T12:16:23.725Z,4.38
2022-09-02T12:21:27.855Z,5.22
2022-09-02T12:26:37.637Z,4.00
2022-09-02T12:31:44.787Z,4.22
2022-09-02T12:36:53.911Z,4.32
2022-09-02T12:42:10.215Z,4.30
2022-09-02T12:47:20.228Z,5.35
2022-09-02T12:52:34.786Z,2.72
2022-09-02T12:57:46.224Z,3.55
2022-09-02T13:03:22.001Z,3.35
2022-09-02T13:08:45.364Z,3.07
2022-09-02T13:14:28.278Z,3.97
2022-09-02T13:19:50.039Z,3.80
2022-09-02T13:25:26.094Z,3.50
2022-09-02T13:30:52.787Z,3.60
2022-09-02T13:35:58.677Z,3.28
2022-09-02T13:41:00.966Z,3.33
2022-09-02T13:46:03.339Z,3.33
2022-09-02T13:51:15.545Z,3.70
2022-09-02T13:56:25.198Z,4.80
2022-09-02T14:01:34.900Z,4.40
2022-09-02T14:06:42.583Z,3.75
2022-09-02T14:11:46.617Z,3.40
2022-09-02T14:16:48.882Z,4.25
2022-09-02T14:21:53.100Z,3.47
2022-09-02T14:26:58.105Z,4.97
2022-09-02T14:32:29.467Z,4.28
2022-09-02T14:37:31.967Z,6.10
2022-09-02T14:42:34.954Z,6.13
2022-09-02T14:47:39.294Z,4.95
2022-09-02T14:52:49.440Z,5.75
2022-09-02T14:58:01.836Z,7.07
2022-09-02T15:03:04.929Z,5.70
2022-09-02T15:08:07.796Z,6.38
2022-09-02T15:13:26.884Z,6.43
2022-09-02T15:18:29.115Z,6.05
2022-09-02T15:23:34.632Z,5.80
2022-09-02T15:28:38.571Z,6.72
2022-09-02T15:33:42.106Z,7.35
2022-09-02T15:38:44.375Z,8.18
2022-09-02T15:43:47.755Z,6.50
2022-09-02T15:48:51.423Z,7.20
2022-09-02T15:53:58.121Z,6.32
2022-09-02T15:59:09.255Z,6.28
2022-09-02T16:09:31.933Z,5.90
2022-09-02T16:14:34.478Z,6.22
2022-09-02T16:19:36.663Z,6.22
2022-09-02T16:24:38.800Z,7.45
2022-09-02T16:29:41.799Z,6.78
2022-09-02T16:34:45.459Z,9.20
2022-09-02T16:39:47.617Z,9.23
2022-09-02T16:44:51.546Z,8.65
2022-09-02T16:49:53.934Z,7.68
2022-09-02T16:54:56.060Z,9.05
2022-09-02T16:59:58.215Z,7.53
2022-09-02T17:05:00.304Z,8.60
2022-09-02T17:10:03.365Z,9.45
2022-09-02T17:15:05.899Z,10.75
2022-09-02T17:20:08.609Z,8.02
2022-09-02T17:25:11.318Z,10.05
2022-09-02T17:30:13.609Z,15.13
2022-09-02T17:35:15.873Z,10.52
2022-09-02T17:40:40.935Z,11.05
2022-09-02T17:45:43.063Z,9.15
2022-09-02T17:50:45.209Z,14.18
2022-09-02T17:55:50.320Z,13.52
2022-09-02T18:00:58.899Z,12.60
2022-09-02T18:06:26.056Z,15.15
2022-09-02T18:11:29.520Z,14.45
2022-09-02T18:16:36.763Z,10.00
2022-09-02T18:21:56.347Z,12.50
2022-09-02T18:27:16.166Z,12.32
2022-09-02T18:32:42.914Z,15.98
2022-09-02T18:38:11.228Z,11.00
2022-09-02T18:43:22.356Z,14.13
2022-09-02T18:48:46.757Z,10.70
2022-09-02T18:54:04.515Z,10.00
2022-09-02T18:59:12.627Z,9.82
2022-09-02T19:04:14.972Z,12.13
2022-09-02T19:09:21.272Z,9.35
2022-09-02T19:14:29.557Z,11.68
2022-09-02T19:19:35.262Z,14.32
2022-09-02T19:24:47.949Z,9.05
2022-09-02T19:29:54.164Z,10.02
2022-09-02T19:34:58.041Z,12.20
2022-09-02T19:40:07.842Z,11.55
2022-09-02T19:45:15.515Z,9.13
2022-09-02T19:50:18.585Z,8.82
2022-09-02T19:55:20.838Z,8.50
2022-09-02T20:00:23.086Z,8.35
2022-09-02T20:05:25.996Z,9.13
2022-09-02T20:10:29.917Z,12.50
2022-09-02T20:15:37.408Z,10.23
2022-09-02T20:20:48.079Z,11.60
2022-09-02T20:26:22.882Z,12.88
2022-09-02T20:31:52.682Z,16.20
2022-09-02T20:37:09.745Z,16.08
2022-09-02T20:42:30.926Z,17.13
2022-09-02T20:48:10.465Z,15.32
2022-09-02T20:53:49.284Z,21.45
2022-09-02T20:59:07.678Z,22.92
2022-09-02T21:04:24.718Z,15.75
2022-09-02T21:09:39.617Z,14.20
2022-09-02T21:14:52.948Z,15.70
2022-09-02T21:20:13.084Z,17.58
2022-09-02T21:25:38.214Z,13.20
2022-09-02T21:30:45.868Z,14.65
2022-09-02T21:35:50.072Z,15.23
2022-09-02T21:41:04.210Z,21.30
2022-09-02T21:46:44.019Z,22.20
2022-09-02T21:51:52.143Z,24.55
2022-09-02T21:57:24.600Z,24.95
2022-09-02T22:02:34.614Z,24.85
2022-09-02T22:07:40.240Z,20.13
2022-09-02T22:12:51.921Z,24.60
2022-09-02T22:18:22.740Z,21.33
2022-09-02T22:23:26.636Z,23.77
2022-09-02T22:28:39.157Z,21.88
2022-09-02T22:33:47.953Z,17.45
2022-09-02T22:38:52.180Z,14.95
2022-09-02T22:43:58.270Z,17.20
2022-09-02T22:49:25.548Z,21.55
2022-09-02T22:54:28.037Z,24.30
2022-09-02T22:59:37.923Z,20.50
2022-09-02T23:05:04.015Z,22.30
2022-09-02T23:10:24.591Z,20.67
2022-09-02T23:15:36.908Z,20.80
2022-09-02T23:21:11.656Z,23.05
2022-09-02T23:26:52.098Z,19.53
2022-09-02T23:32:10.414Z,20.77
2022-09-02T23:37:19.322Z,20.33
2022-09-02T23:42:21.828Z,22.55
2022-09-02T23:47:51.902Z,21.05
2022-09-02T23:53:22.969Z,22.15
2022-09-02T23:58:54.069Z,19.35
